sim
Sign-in with your pilot id or email,
or register
Callsign
Passwort

Schedule Details

Flight Number: EWG1812
Departure: Munich Airport (EDDM) at 05:30
Arrival: Fuerteventura Airport (GCFV) at 10:10
Route: Eurowings Passenger Schedule. Enter filed route here before submitting Pirep.

Weather Information
Getting current METAR information for EDDM 212250Z 05005KT CAVOK 10/M02 Q1015 NOSIG
Getting current METAR information for GCFV 212230Z AUTO 33007KT 300V360 9999 BKN027 19/13 Q1015

Schedule Frequency

Route Map